Time;durP1;ratioP1;P1;durP2;ratioP2;P2;SDS_P1;SDS_P2;PMS_P1;PMS_P2;Temp;Humidity;BMP_temperature;BMP_pressure;BME280_temperature;BME280_humidity;BME280_pressure;Samples;Min_cycle;Max_cycle;Signal;HPM_P1;HPM_P2
2023/02/11 00:00:17;;;;;;;41.47;22.35;;;;;;;-146.25;92.54;52388.47;2064973;28;20077;-71
2023/02/11 00:01:32;;;;;;;40.88;21.52;;;;;;;-146.25;93.10;52437.13;2065093;28;20043;-71
2023/02/11 00:02:34;;;;;;;36.13;20.48;;;;;;;-146.25;92.44;52414.84;2064716;28;20920;-71
2023/02/11 00:03:37;;;;;;;36.13;20.60;;;;;;;-146.25;92.55;52412.81;2063722;28;39937;-71
2023/02/11 00:04:39;;;;;;;38.05;20.88;;;;;;;-146.25;93.14;52390.50;2064105;28;38986;-71
2023/02/11 00:05:41;;;;;;;37.72;20.23;;;;;;;-146.25;92.85;52402.66;2064930;28;36841;-71
2023/02/11 00:06:42;;;;;;;35.47;20.52;;;;;;;-146.25;92.53;52412.81;2064865;28;20038;-71
2023/02/11 00:07:46;;;;;;;38.55;21.00;;;;;;;-146.25;92.21;52400.63;2064035;28;32640;-71
2023/02/11 00:08:48;;;;;;;38.60;21.55;;;;;;;-146.25;92.27;52416.84;2064361;28;38664;-72
2023/02/11 00:09:50;;;;;;;35.83;21.45;;;;;;;-146.25;92.21;52376.31;2065375;28;38351;-71
2023/02/11 00:10:54;;;;;;;35.53;20.25;;;;;;;-146.25;92.84;52418.88;2064147;28;38850;-70
2023/02/11 00:11:56;;;;;;;38.35;19.98;;;;;;;-146.25;92.89;52437.13;2064968;28;20046;-71
2023/02/11 00:12:57;;;;;;;38.10;20.23;;;;;;;-146.25;92.36;52439.16;2063946;28;40206;-71
2023/02/11 00:14:03;;;;;;;34.63;21.23;;;;;;;-146.25;92.90;52374.28;2064162;28;37631;-71
2023/02/11 00:15:07;;;;;;;38.85;19.92;;;;;;;-146.25;92.44;52420.91;2063775;28;41430;-71
2023/02/11 00:16:17;;;;;;;36.97;20.27;;;;;;;-146.25;92.93;52416.84;2064206;28;37497;-71
2023/02/11 00:17:20;;;;;;;38.80;19.60;;;;;;;-146.25;92.70;52414.84;2064223;28;41015;-70
2023/02/11 00:18:22;;;;;;;39.40;20.38;;;;;;;-146.25;92.92;52431.06;2063848;28;39479;-71
2023/02/11 00:19:23;;;;;;;39.65;20.20;;;;;;;-146.25;92.80;52412.81;2063761;28;39809;-70
2023/02/11 00:20:25;;;;;;;35.80;20.02;;;;;;;-146.25;92.53;52388.47;2063972;28;39952;-71
2023/02/11 00:21:28;;;;;;;35.88;19.95;;;;;;;-146.25;92.66;52390.50;2064122;28;40633;-71
2023/02/11 00:22:30;;;;;;;36.42;19.30;;;;;;;-146.25;92.69;52382.38;2063770;28;39278;-71
2023/02/11 00:23:31;;;;;;;35.42;19.85;;;;;;;-146.25;92.85;52414.84;2063721;28;36865;-71
2023/02/11 00:24:34;;;;;;;34.60;20.42;;;;;;;-146.25;92.30;52416.84;2063323;28;38594;-71
2023/02/11 00:25:42;;;;;;;40.17;20.27;;;;;;;-146.25;93.18;52416.84;2063869;28;31330;-71
2023/02/11 00:26:46;;;;;;;37.60;18.55;;;;;;;-146.25;92.46;52398.59;2071279;28;45742;-72
2023/02/11 00:27:48;;;;;;;38.05;20.48;;;;;;;-146.25;93.00;52386.44;2071204;28;36134;-71
2023/02/11 00:28:51;;;;;;;36.17;19.67;;;;;;;-146.25;93.40;52435.09;2064333;28;28155;-71
2023/02/11 00:29:52;;;;;;;36.20;19.17;;;;;;;-146.25;92.82;52380.38;2064235;28;31170;-72
2023/02/11 00:30:56;;;;;;;38.47;19.48;;;;;;;-146.25;92.43;52366.16;2064303;28;27823;-71
2023/02/11 00:32:03;;;;;;;42.90;19.63;;;;;;;-146.25;92.90;52392.53;2063826;28;40558;-72
2023/02/11 00:33:06;;;;;;;36.55;19.17;;;;;;;-146.25;92.79;52416.84;2064770;28;20050;-72
2023/02/11 00:34:07;;;;;;;39.65;19.15;;;;;;;-146.25;92.43;52400.63;2063802;28;40882;-71
2023/02/11 00:35:12;;;;;;;37.53;19.95;;;;;;;-146.25;92.72;52416.84;2064666;28;20043;-71
2023/02/11 00:36:20;;;;;;;34.63;18.73;;;;;;;-146.25;93.41;52396.59;2063871;28;37879;-71
2023/02/11 00:37:21;;;;;;;41.67;20.80;;;;;;;-146.25;93.22;52396.59;2064996;28;28225;-71
2023/02/11 00:38:26;;;;;;;38.38;19.83;;;;;;;-146.25;93.23;52418.88;2064807;28;20855;-72
2023/02/11 00:39:27;;;;;;;44.55;20.48;;;;;;;-146.25;93.00;52435.09;2063852;28;42750;-72
2023/02/11 00:40:29;;;;;;;43.00;19.83;;;;;;;-146.25;92.80;52408.75;2064670;28;20043;-71
2023/02/11 00:41:31;;;;;;;38.38;19.77;;;;;;;-146.25;93.15;52376.31;2063141;28;40967;-72
2023/02/11 00:42:34;;;;;;;37.30;20.10;;;;;;;-146.25;92.77;52400.63;2063782;28;34266;-72
2023/02/11 00:43:36;;;;;;;38.15;19.25;;;;;;;-146.25;92.74;52400.63;2064128;28;39029;-71
2023/02/11 00:44:38;;;;;;;40.45;19.85;;;;;;;-146.25;93.23;52420.91;2063476;28;39639;-72
2023/02/11 00:45:39;;;;;;;39.17;19.58;;;;;;;-146.25;93.15;52418.88;2063476;28;29118;-71
2023/02/11 00:46:41;;;;;;;37.95;18.65;;;;;;;-146.25;93.13;52392.53;2063439;28;23920;-72
2023/02/11 00:47:46;;;;;;;41.25;19.20;;;;;;;-146.25;93.18;52410.78;2064197;28;20176;-71
2023/02/11 00:48:50;;;;;;;42.40;19.23;;;;;;;-146.25;93.33;52408.75;2064266;28;20054;-72
2023/02/11 00:49:55;;;;;;;40.53;20.23;;;;;;;-146.25;93.32;52400.63;2064701;28;20046;-71
2023/02/11 00:51:00;;;;;;;38.70;19.30;;;;;;;-146.25;92.86;52414.84;2063432;28;34631;-70
2023/02/11 00:52:01;;;;;;;40.55;19.50;;;;;;;-146.25;93.17;52418.88;2063579;28;30058;-72
2023/02/11 00:53:03;;;;;;;37.53;18.35;;;;;;;-146.25;92.71;52408.75;2064174;28;29984;-71
2023/02/11 00:54:05;;;;;;;38.80;18.60;;;;;;;-146.25;92.55;52433.06;2063391;28;29131;-71
2023/02/11 00:55:07;;;;;;;37.15;19.70;;;;;;;-146.25;93.22;52380.38;2063243;28;34523;-70
2023/02/11 00:56:09;;;;;;;45.58;19.50;;;;;;;-146.25;92.94;52416.84;2063310;28;38401;-71
2023/02/11 00:57:11;;;;;;;36.97;19.27;;;;;;;-146.25;93.24;52441.19;2063625;28;35042;-71
2023/02/11 00:58:12;;;;;;;38.05;19.77;;;;;;;-146.25;93.44;52388.47;2063153;28;38580;-71
2023/02/11 00:59:16;;;;;;;34.67;18.77;;;;;;;-146.25;92.88;52445.25;2064075;28;20085;-71
2023/02/11 01:00:21;;;;;;;40.00;19.58;;;;;;;-146.25;92.77;52416.84;2064445;28;20145;-70
2023/02/11 01:01:23;;;;;;;39.42;19.40;;;;;;;-146.25;92.54;52394.56;2064141;28;27504;-71
2023/02/11 01:02:24;;;;;;;35.05;19.10;;;;;;;-146.25;92.73;52400.63;2064144;28;28732;-71
2023/02/11 01:03:26;;;;;;;33.35;19.25;;;;;;;-146.25;93.03;52414.84;2063368;28;40034;-71
2023/02/11 01:04:29;;;;;;;32.13;18.80;;;;;;;-146.25;92.80;52420.91;2064283;28;21019;-71
2023/02/11 01:05:31;;;;;;;35.15;18.30;;;;;;;-146.25;92.98;52418.88;2063919;28;32276;-71
2023/02/11 01:06:32;;;;;;;39.33;19.00;;;;;;;-146.25;93.54;52418.88;2064193;28;30343;-71
2023/02/11 01:07:34;;;;;;;35.28;18.92;;;;;;;-146.25;92.90;52424.97;2064395;28;22807;-72
2023/02/11 01:08:36;;;;;;;39.92;18.38;;;;;;;-146.25;92.98;52376.31;2063293;28;32365;-71
2023/02/11 01:09:38;;;;;;;35.50;18.13;;;;;;;-146.25;93.53;52416.84;2063827;28;25440;-71
2023/02/11 01:10:42;;;;;;;41.30;18.65;;;;;;;-146.25;93.13;52420.91;2064160;28;29081;-71
2023/02/11 01:11:44;;;;;;;32.33;18.27;;;;;;;-146.25;92.78;52388.47;2063747;28;35535;-71
2023/02/11 01:12:46;;;;;;;37.78;18.50;;;;;;;-146.25;92.69;52406.72;2062842;28;31143;-71
2023/02/11 01:13:50;;;;;;;36.45;18.80;;;;;;;-146.25;92.95;52396.59;2064401;28;31163;-71
2023/02/11 01:14:52;;;;;;;38.13;18.35;;;;;;;-146.25;93.03;52400.63;2064745;28;32215;-71
2023/02/11 01:15:55;;;;;;;36.45;17.90;;;;;;;-146.25;93.33;52447.28;2072039;28;40117;-72
2023/02/11 01:16:57;;;;;;;37.63;17.75;;;;;;;-146.25;93.24;52376.31;2071672;28;20199;-71
2023/02/11 01:17:59;;;;;;;34.00;17.70;;;;;;;-146.25;93.33;52396.59;2063984;28;27991;-72
2023/02/11 01:19:01;;;;;;;35.97;18.73;;;;;;;-146.25;93.25;52437.13;2063318;28;34310;-71
2023/02/11 01:20:06;;;;;;;36.58;18.20;;;;;;;-146.25;93.00;52404.69;2063189;28;32897;-71
2023/02/11 01:21:09;;;;;;;33.33;17.17;;;;;;;-146.25;92.85;52412.81;2063363;28;37675;-72
2023/02/11 01:22:10;;;;;;;38.10;18.42;;;;;;;-146.25;93.36;52384.41;2064839;28;20042;-71
2023/02/11 01:23:12;;;;;;;33.17;17.30;;;;;;;-146.25;93.59;52386.44;2071062;28;41184;-71
2023/02/11 01:24:14;;;;;;;35.67;18.42;;;;;;;-146.25;93.07;52422.94;2071189;28;36819;-71
2023/02/11 01:25:18;;;;;;;32.90;17.70;;;;;;;-146.25;92.93;52420.91;2063601;28;20043;-71
2023/02/11 01:26:20;;;;;;;31.52;18.45;;;;;;;-146.25;92.95;52429.03;2055556;28;34884;-71
2023/02/11 01:27:24;;;;;;;30.08;17.60;;;;;;;-146.25;93.21;52433.06;2063854;28;20125;-71
2023/02/11 01:28:27;;;;;;;33.33;17.63;;;;;;;-146.25;93.86;52416.84;2063460;28;39289;-71
2023/02/11 01:29:29;;;;;;;33.65;18.00;;;;;;;-146.25;93.27;52394.56;2063857;28;29839;-71
2023/02/11 01:30:31;;;;;;;34.05;17.50;;;;;;;-146.25;92.97;52420.91;2063032;28;33081;-72
2023/02/11 01:31:33;;;;;;;35.67;16.67;;;;;;;-146.25;93.21;52418.88;2062976;28;43450;-72
2023/02/11 01:32:35;;;;;;;31.80;16.60;;;;;;;-146.25;93.59;52384.41;2062783;28;36875;-71
2023/02/11 01:33:37;;;;;;;29.15;16.02;;;;;;;-146.25;93.64;52414.84;2063202;28;31869;-71
2023/02/11 01:34:40;;;;;;;37.47;17.17;;;;;;;-146.25;93.81;52424.97;2063025;28;20987;-71
2023/02/11 01:35:44;;;;;;;32.00;16.88;;;;;;;-146.25;93.46;52406.72;2062998;28;26824;-71
2023/02/11 01:36:48;;;;;;;29.08;16.85;;;;;;;-146.25;92.88;52422.94;2063687;28;20050;-71
2023/02/11 01:37:50;;;;;;;34.92;16.10;;;;;;;-146.25;92.93;52402.66;2063125;28;30603;-70
2023/02/11 01:38:52;;;;;;;29.58;16.58;;;;;;;-146.25;92.92;52402.66;2063314;28;28499;-71
2023/02/11 01:39:54;;;;;;;36.83;16.70;;;;;;;-146.25;93.28;52412.81;2063834;28;20047;-71
2023/02/11 01:41:03;;;;;;;33.05;15.90;;;;;;;-146.25;93.13;52412.81;2063172;28;23923;-71
2023/02/11 01:42:05;;;;;;;37.15;16.35;;;;;;;-146.25;93.49;52412.81;2063775;28;20078;-71
2023/02/11 01:43:10;;;;;;;31.02;17.08;;;;;;;-146.25;93.13;52427.00;2062318;28;43984;-71
2023/02/11 01:44:25;;;;;;;31.38;16.60;;;;;;;-146.25;93.14;52408.75;2063885;28;32959;-70
2023/02/11 01:45:45;;;;;;;31.13;15.43;;;;;;;-146.25;92.87;52453.34;2063958;28;20046;-70
2023/02/11 01:46:47;;;;;;;29.65;15.43;;;;;;;-146.25;93.68;52388.47;2063970;28;30168;-71
2023/02/11 01:47:49;;;;;;;34.60;15.13;;;;;;;-146.25;93.62;52420.91;2055556;28;38152;-71
2023/02/11 01:49:07;;;;;;;35.33;16.58;;;;;;;-146.25;93.47;52388.47;2064141;28;20043;-71
2023/02/11 01:50:12;;;;;;;29.42;15.00;;;;;;;-146.25;93.16;52396.59;2063845;28;20066;-71
2023/02/11 01:51:22;;;;;;;33.67;15.88;;;;;;;-146.25;93.59;52424.97;2063303;28;31912;-71
2023/02/11 01:52:30;;;;;;;36.33;15.82;;;;;;;-146.25;93.49;52422.94;2063021;28;29608;-71
2023/02/11 01:57:52;;;;;;;31.27;14.63;;;;;;;-146.25;93.62;52424.97;2063059;28;20940;-71
2023/02/11 01:59:00;;;;;;;34.45;15.68;;;;;;;-146.25;93.79;52416.84;2047909;28;25891;-71
2023/02/11 02:00:23;;;;;;;32.13;14.88;;;;;;;-146.25;93.54;52396.59;2055941;28;20035;-71
2023/02/11 02:01:27;;;;;;;35.13;15.32;;;;;;;-146.25;93.62;52427.00;2064780;28;20881;-71
2023/02/11 02:02:42;;;;;;;33.28;14.40;;;;;;;-146.25;93.66;52427.00;2064425;28;20050;-71
2023/02/11 02:03:47;;;;;;;38.58;15.70;;;;;;;-146.25;93.72;52360.09;2055007;28;28206;-72
2023/02/11 02:05:08;;;;;;;35.35;15.07;;;;;;;-146.25;93.87;52416.84;2057175;28;26846;-70
2023/02/11 02:06:18;;;;;;;32.67;15.02;;;;;;;-146.25;93.70;52435.09;2063408;28;32213;-72
2023/02/11 02:07:52;;;;;;;36.72;15.57;;;;;;;-146.25;93.50;52410.78;2063265;28;31319;-71
2023/02/11 02:09:04;;;;;;;33.72;15.40;;;;;;;-146.25;93.90;52384.41;2063184;28;20889;-70
2023/02/11 02:10:14;;;;;;;31.92;14.40;;;;;;;-146.25;93.54;52364.13;2063460;28;20047;-69
2023/02/11 02:11:16;;;;;;;27.70;14.20;;;;;;;-146.25;93.49;52433.06;2054788;28;20043;-71
2023/02/11 02:12:18;;;;;;;31.65;15.13;;;;;;;-146.25;93.55;52453.34;2064420;28;20050;-70
2023/02/11 02:13:19;;;;;;;30.45;14.45;;;;;;;-146.25;93.74;52388.47;2063223;28;20047;-71
2023/02/11 02:14:25;;;;;;;34.20;14.32;;;;;;;-146.25;93.66;52404.69;2071353;28;20176;-71
2023/02/11 02:15:44;;;;;;;30.25;13.80;;;;;;;-146.25;94.23;52412.81;2070908;28;29453;-71
2023/02/11 02:16:46;;;;;;;31.08;14.20;;;;;;;-146.25;93.70;52414.84;2062433;28;34242;-71
2023/02/11 02:18:16;;;;;;;31.15;15.00;;;;;;;-146.25;94.13;52392.53;2063024;28;32471;-71
2023/02/11 02:20:16;;;;;;;31.27;13.85;;;;;;;-146.25;94.15;52402.66;2063139;28;23811;-71
2023/02/11 02:22:13;;;;;;;29.10;13.35;;;;;;;-146.25;93.88;52414.84;2063744;28;37092;-71
2023/02/11 02:24:10;;;;;;;31.10;13.80;;;;;;;-146.25;94.07;52368.19;2063017;28;38633;-71
2023/02/11 02:25:29;;;;;;;30.20;13.80;;;;;;;-146.25;93.96;52388.47;2062772;28;41712;-71
2023/02/11 02:27:08;;;;;;;28.67;14.10;;;;;;;-146.25;94.21;52392.53;2063066;28;41211;-71
2023/02/11 02:28:46;;;;;;;30.88;13.32;;;;;;;-146.25;94.67;52412.81;2063272;28;38864;-71
2023/02/11 02:29:53;;;;;;;32.30;13.77;;;;;;;-146.25;94.63;52457.41;2063478;28;41322;-71
2023/02/11 02:31:26;;;;;;;31.92;13.90;;;;;;;-146.25;94.53;52398.59;2063606;28;39228;-71
2023/02/11 02:32:55;;;;;;;30.02;13.63;;;;;;;-146.25;94.57;52433.06;2063913;28;38866;-71
2023/02/11 02:34:09;;;;;;;29.75;13.55;;;;;;;-146.25;94.46;52412.81;2063551;28;37420;-71
2023/02/11 02:35:38;;;;;;;30.23;13.85;;;;;;;-146.25;95.00;52420.91;2063319;28;36024;-71
2023/02/11 02:37:03;;;;;;;30.92;13.23;;;;;;;-146.25;94.95;52400.63;2063137;28;39098;-71
2023/02/11 02:38:23;;;;;;;34.58;13.60;;;;;;;-146.25;94.88;52378.34;2063790;28;20857;-71
2023/02/11 02:39:34;;;;;;;28.33;13.40;;;;;;;-146.25;94.77;52435.09;2063023;28;41515;-70
2023/02/11 02:40:46;;;;;;;28.92;13.63;;;;;;;-146.25;94.86;52378.34;2063610;28;41349;-71
2023/02/11 02:41:52;;;;;;;30.27;13.88;;;;;;;-146.25;94.52;52406.72;2063010;28;35635;-71
2023/02/11 02:42:58;;;;;;;30.73;13.10;;;;;;;-146.25;95.01;52418.88;2062558;28;43508;-71
2023/02/11 02:44:00;;;;;;;25.17;13.13;;;;;;;-146.25;95.15;52412.81;2062744;28;32768;-71
2023/02/11 02:45:02;;;;;;;28.50;13.18;;;;;;;-146.25;95.15;52455.38;2062754;28;38051;-71
2023/02/11 02:46:15;;;;;;;31.02;13.25;;;;;;;-146.25;94.90;52437.13;2062770;28;37554;-71
2023/02/11 02:47:18;;;;;;;26.55;13.07;;;;;;;-146.25;95.14;52376.31;2056879;28;20043;-71
2023/02/11 02:48:32;;;;;;;30.63;13.30;;;;;;;-146.25;94.59;52429.03;2062376;28;41262;-71
2023/02/11 02:49:34;;;;;;;32.10;13.20;;;;;;;-146.25;94.91;52402.66;2062627;28;38057;-71
2023/02/11 02:50:36;;;;;;;26.27;12.55;;;;;;;-146.25;94.79;52380.38;2062375;28;39134;-71
2023/02/11 02:52:07;;;;;;;31.00;12.93;;;;;;;-146.25;95.10;52380.38;2062466;28;41488;-70
2023/02/11 02:53:29;;;;;;;;;;;;;;;-146.25;94.69;52412.81;2055984;28;40706;-71
2023/02/11 02:55:16;;;;;;;27.58;12.40;;;;;;;-146.25;94.89;52378.34;2062910;28;42437;-71
2023/02/11 02:56:42;;;;;;;26.90;12.57;;;;;;;-146.25;94.72;52398.59;2063681;28;32056;-71
2023/02/11 02:57:59;;;;;;;25.98;12.52;;;;;;;-146.25;95.51;52416.84;2063128;28;42344;-71
2023/02/11 02:59:39;;;;;;;28.70;12.50;;;;;;;-146.25;94.97;52406.72;2063146;28;36429;-70
2023/02/11 03:01:11;;;;;;;27.33;13.60;;;;;;;-146.25;95.11;52396.59;2053276;28;34058;-74
2023/02/11 03:02:30;;;;;;;32.25;13.40;;;;;;;-146.25;95.45;52400.63;2063284;28;43380;-71
2023/02/11 03:03:46;;;;;;;25.15;12.18;;;;;;;-146.25;95.06;52388.47;2064556;28;20050;-71
2023/02/11 03:05:05;;;;;;;32.75;13.65;;;;;;;-146.25;95.06;52392.53;2062471;28;41066;-71
2023/02/11 03:06:57;;;;;;;28.25;12.73;;;;;;;-146.25;94.98;52412.81;2066688;28;20043;-69
2023/02/11 03:08:17;;;;;;;25.60;11.98;;;;;;;-146.25;95.36;52412.81;2063099;28;40129;-71
2023/02/11 03:09:57;;;;;;;33.47;11.93;;;;;;;-146.25;95.82;52388.47;2063748;28;20892;-71
2023/02/11 03:11:00;;;;;;;26.15;11.95;;;;;;;-146.25;95.58;52400.63;2064241;28;37009;-71
2023/02/11 03:12:04;;;;;;;27.90;12.38;;;;;;;-146.25;95.28;52429.03;2064023;28;21672;-71
2023/02/11 03:13:07;;;;;;;27.83;12.68;;;;;;;-146.25;95.39;52410.78;2063980;28;43163;-71
2023/02/11 03:14:16;;;;;;;29.33;12.43;;;;;;;-146.25;95.45;52394.56;2064629;28;21074;-71
2023/02/11 03:15:23;;;;;;;24.92;12.05;;;;;;;-146.25;95.76;52408.75;2065347;28;39086;-71
2023/02/11 03:16:27;;;;;;;29.20;11.95;;;;;;;-146.25;95.66;52370.22;2064187;28;36734;-71
2023/02/11 03:17:32;;;;;;;30.33;12.32;;;;;;;-146.25;95.83;52398.59;2064883;28;39766;-71
2023/02/11 03:18:38;;;;;;;28.80;12.43;;;;;;;-146.25;95.43;52380.38;2070997;28;41951;-71
2023/02/11 03:19:43;;;;;;;24.88;12.00;;;;;;;-146.25;95.48;52410.78;2064475;28;38281;-71
2023/02/11 03:20:51;;;;;;;31.60;12.32;;;;;;;-146.25;95.75;52384.41;2063647;28;37226;-70
2023/02/11 03:21:56;;;;;;;32.90;11.93;;;;;;;-146.25;95.54;52414.84;2064153;28;32956;-70
2023/02/11 03:23:07;;;;;;;31.05;12.23;;;;;;;-146.25;95.67;52390.50;2065324;28;20137;-70
2023/02/11 03:24:18;;;;;;;30.38;12.52;;;;;;;-146.25;95.79;52420.91;2063980;28;42389;-71
2023/02/11 03:25:25;;;;;;;24.45;12.07;;;;;;;-146.25;95.99;52424.97;2063668;28;33907;-70
2023/02/11 03:26:39;;;;;;;28.83;12.05;;;;;;;-146.25;95.73;52380.38;2063902;28;32876;-70
2023/02/11 03:28:06;;;;;;;27.58;11.90;;;;;;;-146.25;95.43;52366.16;2063567;28;45056;-71
2023/02/11 03:29:15;;;;;;;28.80;12.00;;;;;;;-146.25;95.91;52386.44;2065905;28;41152;-71
2023/02/11 03:30:24;;;;;;;26.15;11.73;;;;;;;-146.25;96.00;52422.94;2063608;28;45046;-70
2023/02/11 03:32:21;;;;;;;31.00;12.45;;;;;;;-146.25;96.05;52420.91;2064518;28;20049;-70
2023/02/11 03:33:40;;;;;;;34.55;12.55;;;;;;;-146.25;95.96;52392.53;2043924;28;38619;-71
2023/02/11 03:34:57;;;;;;;29.27;11.77;;;;;;;-146.25;96.17;52388.47;2038501;29;43744;-70
2023/02/11 03:36:09;;;;;;;28.70;11.75;;;;;;;-146.25;95.92;52445.25;2064401;28;40992;-70
2023/02/11 03:37:20;;;;;;;27.63;12.50;;;;;;;-146.25;95.84;52396.59;2063900;28;39231;-70
2023/02/11 03:38:50;;;;;;;32.95;11.90;;;;;;;-146.25;95.90;52398.59;2064553;28;20812;-70
2023/02/11 03:40:04;;;;;;;31.95;12.75;;;;;;;-146.25;96.14;52410.78;2054974;28;37392;-71
2023/02/11 03:41:07;;;;;;;33.17;12.02;;;;;;;-146.25;96.46;52388.47;2063796;28;41629;-70
2023/02/11 03:42:13;;;;;;;23.20;11.48;;;;;;;-146.25;95.96;52396.59;2064522;28;20819;-70
2023/02/11 03:43:25;;;;;;;27.92;11.73;;;;;;;-146.25;95.78;52451.31;2063668;28;41600;-70
2023/02/11 03:44:33;;;;;;;28.38;11.85;;;;;;;-146.25;96.28;52410.78;2063968;28;41050;-72
2023/02/11 03:45:37;;;;;;;31.13;12.38;;;;;;;-146.25;96.47;52435.09;2064755;28;32024;-69
2023/02/11 03:46:43;;;;;;;29.20;12.25;;;;;;;-146.25;96.23;52392.53;2064435;28;41620;-70
2023/02/11 03:47:49;;;;;;;28.08;11.98;;;;;;;-146.25;96.33;52414.84;2063962;28;35140;-71
2023/02/11 03:48:58;;;;;;;25.85;12.90;;;;;;;-146.25;96.63;52392.53;2063867;28;42246;-70
2023/02/11 03:50:03;;;;;;;32.17;12.18;;;;;;;-146.25;96.66;52427.00;2063708;28;35749;-71
2023/02/11 03:51:08;;;;;;;24.90;11.77;;;;;;;-146.25;96.45;52384.41;2063930;28;38029;-70
2023/02/11 03:52:11;;;;;;;27.90;10.95;;;;;;;-146.25;96.61;52412.81;2063889;28;39321;-70
2023/02/11 03:53:14;;;;;;;29.02;12.07;;;;;;;-146.25;96.34;52402.66;2064485;28;20043;-70
2023/02/11 03:54:25;;;;;;;29.02;11.68;;;;;;;-146.25;96.42;52400.63;2063581;28;39098;-70
2023/02/11 03:55:31;;;;;;;23.05;10.38;;;;;;;-146.25;96.71;52416.84;2063456;28;38533;-70
2023/02/11 03:56:44;;;;;;;27.23;11.70;;;;;;;-146.25;96.76;52398.59;2064070;28;36018;-70
2023/02/11 03:57:49;;;;;;;27.45;12.15;;;;;;;-146.25;96.99;52410.78;2064354;28;20047;-70
2023/02/11 03:58:50;;;;;;;27.73;12.35;;;;;;;-146.25;96.86;52414.84;2064750;28;20345;-69
2023/02/11 03:59:58;;;;;;;30.45;11.80;;;;;;;-146.25;96.89;52402.66;2063895;28;41457;-70
2023/02/11 04:01:01;;;;;;;27.83;11.43;;;;;;;-146.25;97.22;52422.94;2064671;28;34575;-71
2023/02/11 04:02:05;;;;;;;29.95;12.27;;;;;;;-146.25;96.89;52416.84;2064288;28;35661;-70
2023/02/11 04:03:08;;;;;;;30.13;12.30;;;;;;;-146.25;97.30;52404.69;2063482;28;41974;-70
2023/02/11 04:04:14;;;;;;;33.95;12.70;;;;;;;-146.25;96.97;52420.91;2065131;28;20047;-72
2023/02/11 04:05:18;;;;;;;31.08;12.05;;;;;;;-146.25;97.35;52424.97;2063957;28;40105;-70
2023/02/11 04:06:20;;;;;;;27.95;12.82;;;;;;;-146.25;97.17;52416.84;2063964;28;37692;-70
2023/02/11 04:07:22;;;;;;;26.65;12.15;;;;;;;-146.25;97.03;52376.31;2064044;28;20054;-70
2023/02/11 04:08:24;;;;;;;27.02;11.60;;;;;;;-146.25;97.55;52433.06;2063389;28;41547;-70
2023/02/11 04:09:25;;;;;;;29.15;12.65;;;;;;;-146.25;97.48;52443.22;2064076;28;37336;-71
2023/02/11 04:10:27;;;;;;;28.45;11.75;;;;;;;-146.25;97.71;52384.41;2064241;28;38634;-70
2023/02/11 04:11:29;;;;;;;33.17;12.05;;;;;;;-146.25;97.31;52437.13;2064233;28;39706;-71
2023/02/11 04:12:30;;;;;;;27.77;11.77;;;;;;;-146.25;97.53;52408.75;2064018;28;37531;-71
2023/02/11 04:13:32;;;;;;;25.67;11.57;;;;;;;-146.25;97.48;52416.84;2064052;28;37513;-71
2023/02/11 04:14:34;;;;;;;30.45;12.00;;;;;;;-146.25;97.25;52410.78;2063947;28;42550;-71
2023/02/11 04:15:38;;;;;;;28.63;12.38;;;;;;;-146.25;97.58;52410.78;2064910;28;20093;-70
2023/02/11 04:16:40;;;;;;;32.47;13.68;;;;;;;-146.25;97.71;52420.91;2063845;28;40037;-71
2023/02/11 04:17:44;;;;;;;27.25;12.18;;;;;;;-146.25;97.78;52378.34;2064255;28;37388;-70
2023/02/11 04:18:45;;;;;;;33.33;12.75;;;;;;;-146.25;97.87;52388.47;2063857;28;37584;-70
2023/02/11 04:19:47;;;;;;;32.53;12.10;;;;;;;-146.25;97.59;52410.78;2064519;28;41846;-71
2023/02/11 04:20:49;;;;;;;33.03;12.55;;;;;;;-146.25;97.68;52439.16;2065278;28;22386;-71
2023/02/11 04:21:51;;;;;;;31.33;12.38;;;;;;;-146.25;97.63;52388.47;2062578;28;35061;-71
2023/02/11 04:22:53;;;;;;;27.55;12.65;;;;;;;-146.25;97.54;52412.81;2062479;28;30912;-70
2023/02/11 04:23:55;;;;;;;29.60;11.98;;;;;;;-146.25;98.01;52416.84;2064202;28;36342;-71
2023/02/11 04:24:56;;;;;;;30.65;13.23;;;;;;;-146.25;97.80;52398.59;2064222;28;39397;-71
2023/02/11 04:25:58;;;;;;;28.75;12.45;;;;;;;-146.25;97.50;52396.59;2064562;28;36623;-71
2023/02/11 04:27:00;;;;;;;29.08;12.20;;;;;;;-146.25;97.72;52435.09;2064664;28;38520;-71
2023/02/11 04:28:04;;;;;;;27.42;12.85;;;;;;;-146.25;97.95;52414.84;2064068;28;40963;-70
2023/02/11 04:29:06;;;;;;;24.55;12.38;;;;;;;-146.25;97.81;52408.75;2064050;28;35518;-69
2023/02/11 04:30:08;;;;;;;25.70;12.07;;;;;;;-146.25;97.89;52433.06;2063686;28;40166;-71
2023/02/11 04:31:10;;;;;;;25.13;11.85;;;;;;;-146.25;98.00;52437.13;2063839;28;42157;-70
2023/02/11 04:32:13;;;;;;;33.17;12.13;;;;;;;-146.25;97.76;52420.91;2063823;28;39005;-71
2023/02/11 04:33:14;;;;;;;29.00;12.60;;;;;;;-146.25;98.02;52422.94;2063760;28;41325;-71
2023/02/11 04:34:16;;;;;;;25.80;12.00;;;;;;;-146.25;97.96;52408.75;2064774;28;20058;-71
2023/02/11 04:35:18;;;;;;;30.27;12.50;;;;;;;-146.25;98.24;52376.31;2063635;28;43069;-70
2023/02/11 04:36:20;;;;;;;28.15;12.20;;;;;;;-146.25;97.71;52380.38;2064201;28;36535;-71
2023/02/11 04:37:21;;;;;;;32.25;12.43;;;;;;;-146.25;97.76;52398.59;2063580;28;38785;-69
2023/02/11 04:38:23;;;;;;;24.48;11.82;;;;;;;-146.25;97.80;52372.25;2064023;28;39845;-71
2023/02/11 04:39:25;;;;;;;28.60;12.23;;;;;;;-146.25;98.09;52420.91;2064588;28;20459;-70
2023/02/11 04:40:29;;;;;;;23.08;12.50;;;;;;;-146.25;97.99;52441.19;2064167;28;43128;-70
2023/02/11 04:41:31;;;;;;;27.17;13.38;;;;;;;-146.25;98.15;52400.63;2063795;28;37986;-70
2023/02/11 04:42:32;;;;;;;32.90;13.40;;;;;;;-146.25;98.14;52414.84;2063953;28;39853;-70
2023/02/11 04:43:34;;;;;;;27.50;12.10;;;;;;;-146.25;98.35;52406.72;2063847;28;40856;-71
2023/02/11 04:44:36;;;;;;;27.52;12.05;;;;;;;-146.25;98.25;52414.84;2063765;28;41121;-70
2023/02/11 04:45:37;;;;;;;26.08;13.15;;;;;;;-146.25;98.54;52386.44;2063708;28;39710;-70
2023/02/11 04:46:42;;;;;;;28.85;12.75;;;;;;;-146.25;98.50;52372.25;2064185;28;38154;-70
2023/02/11 04:47:43;;;;;;;27.83;13.30;;;;;;;-146.25;98.37;52398.59;2062959;28;40984;-71
2023/02/11 04:48:45;;;;;;;27.02;13.18;;;;;;;-146.25;98.55;52402.66;2065365;28;42745;-71
2023/02/11 04:49:47;;;;;;;30.25;14.05;;;;;;;-146.25;98.65;52388.47;2061316;28;37199;-71
2023/02/11 04:50:48;;;;;;;27.33;12.82;;;;;;;-146.25;98.78;52416.84;2063233;28;37988;-71
2023/02/11 04:51:50;;;;;;;27.73;13.65;;;;;;;-146.25;98.55;52416.84;2063859;28;38870;-71
2023/02/11 04:52:52;;;;;;;27.27;12.60;;;;;;;-146.25;98.39;52408.75;2064307;28;20039;-71
2023/02/11 04:53:54;;;;;;;28.60;12.85;;;;;;;-146.25;98.58;52412.81;2063260;28;41237;-71
2023/02/11 04:54:55;;;;;;;26.30;12.80;;;;;;;-146.25;98.58;52412.81;2063866;28;37124;-71
2023/02/11 04:55:57;;;;;;;25.00;11.98;;;;;;;-146.25;98.84;52402.66;2063509;28;39828;-71
2023/02/11 04:56:59;;;;;;;37.05;14.32;;;;;;;-146.25;98.70;52376.31;2064029;28;41420;-71
2023/02/11 04:58:01;;;;;;;29.92;13.38;;;;;;;-146.25;98.98;52420.91;2064425;28;38331;-69
2023/02/11 04:59:04;;;;;;;33.83;14.00;;;;;;;-146.25;99.34;52414.84;2063934;28;40232;-70
2023/02/11 05:00:08;;;;;;;27.33;13.05;;;;;;;-146.25;99.31;52396.59;2064448;28;20051;-71
2023/02/11 05:01:14;;;;;;;29.38;13.23;;;;;;;-146.25;99.09;52404.69;2063984;28;37579;-71
2023/02/11 05:02:16;;;;;;;30.77;13.73;;;;;;;-146.25;99.21;52412.81;2063611;28;37965;-71
2023/02/11 05:03:17;;;;;;;32.13;13.93;;;;;;;-146.25;99.36;52396.59;2063729;28;40584;-71
2023/02/11 05:04:24;;;;;;;23.77;13.48;;;;;;;-146.25;99.08;52384.41;2064040;28;20047;-71
2023/02/11 05:05:26;;;;;;;32.05;14.43;;;;;;;-146.25;99.45;52412.81;2064796;28;20043;-71
2023/02/11 05:06:28;;;;;;;29.95;13.25;;;;;;;-146.25;99.31;52400.63;2063443;28;38448;-71
2023/02/11 05:07:30;;;;;;;29.92;14.02;;;;;;;-146.25;99.44;52416.84;2063965;28;40711;-71